sensor_id;sensor_type;location;lat;lon;timestamp;pressure;altitude;pressure_sealevel;temperature;humidity
28935;BME280;16044;52.726;-2.108;2023-04-01T00:00:53;99013.72;;;9.49;100.00
28935;BME280;16044;52.726;-2.108;2023-04-01T00:03:21;99010.78;;;9.44;100.00
28935;BME280;16044;52.726;-2.108;2023-04-01T00:05:49;99017.88;;;9.45;100.00
28935;BME280;16044;52.726;-2.108;2023-04-01T00:08:17;99024.50;;;9.43;100.00
28935;BME280;16044;52.726;-2.108;2023-04-01T00:10:44;99010.38;;;9.41;100.00
28935;BME280;16044;52.726;-2.108;2023-04-01T00:13:12;99022.44;;;9.38;100.00
28935;BME280;16044;52.726;-2.108;2023-04-01T00:15:40;99018.91;;;9.44;100.00
28935;BME280;16044;52.726;-2.108;2023-04-01T00:18:08;99017.03;;;9.38;100.00
28935;BME280;16044;52.726;-2.108;2023-04-01T00:20:35;99023.66;;;9.35;100.00
28935;BME280;16044;52.726;-2.108;2023-04-01T00:23:02;99028.25;;;9.35;100.00
28935;BME280;16044;52.726;-2.108;2023-04-01T00:25:29;99023.47;;;9.37;100.00
28935;BME280;16044;52.726;-2.108;2023-04-01T00:27:57;99026.16;;;9.37;100.00
28935;BME280;16044;52.726;-2.108;2023-04-01T00:30:24;99033.88;;;9.40;100.00
28935;BME280;16044;52.726;-2.108;2023-04-01T00:32:52;99029.06;;;9.35;100.00
28935;BME280;16044;52.726;-2.108;2023-04-01T00:35:20;99037.41;;;9.34;100.00
28935;BME280;16044;52.726;-2.108;2023-04-01T00:37:47;99039.06;;;9.35;100.00
28935;BME280;16044;52.726;-2.108;2023-04-01T00:43:16;99041.13;;;9.26;100.00
28935;BME280;16044;52.726;-2.108;2023-04-01T00:45:47;99047.81;;;9.30;100.00
28935;BME280;16044;52.726;-2.108;2023-04-01T00:48:18;99050.06;;;9.27;100.00
28935;BME280;16044;52.726;-2.108;2023-04-01T00:51:17;99047.75;;;9.24;100.00
28935;BME280;16044;52.726;-2.108;2023-04-01T00:53:52;99055.06;;;9.30;100.00
28935;BME280;16044;52.726;-2.108;2023-04-01T00:56:24;99055.06;;;9.30;100.00
28935;BME280;16044;52.726;-2.108;2023-04-01T00:59:00;99058.78;;;9.22;100.00
28935;BME280;16044;52.726;-2.108;2023-04-01T01:01:29;99069.59;;;9.22;100.00
28935;BME280;16044;52.726;-2.108;2023-04-01T01:03:57;99063.59;;;9.27;100.00
28935;BME280;16044;52.726;-2.108;2023-04-01T01:06:46;99069.44;;;9.30;100.00
28935;BME280;16044;52.726;-2.108;2023-04-01T01:12:38;99068.13;;;9.20;100.00
28935;BME280;16044;52.726;-2.108;2023-04-01T01:15:27;99071.47;;;9.22;100.00
28935;BME280;16044;52.726;-2.108;2023-04-01T01:18:05;99071.47;;;9.22;100.00
28935;BME280;16044;52.726;-2.108;2023-04-01T01:24:27;99070.41;;;9.09;100.00
28935;BME280;16044;52.726;-2.108;2023-04-01T01:27:10;99073.94;;;9.16;100.00
28935;BME280;16044;52.726;-2.108;2023-04-01T01:35:50;99090.97;;;9.10;100.00
28935;BME280;16044;52.726;-2.108;2023-04-01T01:38:23;99085.19;;;9.13;100.00
28935;BME280;16044;52.726;-2.108;2023-04-01T01:40:53;99094.94;;;9.14;100.00
28935;BME280;16044;52.726;-2.108;2023-04-01T01:43:27;99098.50;;;9.15;100.00
28935;BME280;16044;52.726;-2.108;2023-04-01T01:46:00;99102.41;;;9.12;100.00
28935;BME280;16044;52.726;-2.108;2023-04-01T01:48:34;99108.44;;;9.08;100.00
28935;BME280;16044;52.726;-2.108;2023-04-01T01:51:05;99111.13;;;9.08;100.00
28935;BME280;16044;52.726;-2.108;2023-04-01T01:53:33;99113.66;;;9.09;100.00
28935;BME280;16044;52.726;-2.108;2023-04-01T01:56:00;99119.63;;;9.05;100.00
28935;BME280;16044;52.726;-2.108;2023-04-01T01:58:31;99119.19;;;9.01;100.00
28935;BME280;16044;52.726;-2.108;2023-04-01T02:01:11;99125.66;;;9.00;100.00
28935;BME280;16044;52.726;-2.108;2023-04-01T02:03:44;99130.19;;;8.93;100.00
28935;BME280;16044;52.726;-2.108;2023-04-01T02:06:15;99134.16;;;8.97;100.00
28935;BME280;16044;52.726;-2.108;2023-04-01T02:09:04;99135.41;;;8.94;100.00
28935;BME280;16044;52.726;-2.108;2023-04-01T02:11:45;99135.59;;;8.93;100.00
28935;BME280;16044;52.726;-2.108;2023-04-01T02:14:16;99140.59;;;8.96;100.00
28935;BME280;16044;52.726;-2.108;2023-04-01T02:19:28;99146.59;;;8.91;100.00
28935;BME280;16044;52.726;-2.108;2023-04-01T02:22:01;99145.56;;;8.92;100.00
28935;BME280;16044;52.726;-2.108;2023-04-01T02:24:31;99154.91;;;8.90;100.00
28935;BME280;16044;52.726;-2.108;2023-04-01T02:27:02;99154.25;;;8.81;100.00
28935;BME280;16044;52.726;-2.108;2023-04-01T02:29:30;99151.84;;;8.71;100.00
28935;BME280;16044;52.726;-2.108;2023-04-01T02:31:58;99160.81;;;8.72;100.00
28935;BME280;16044;52.726;-2.108;2023-04-01T02:34:26;99157.50;;;8.76;100.00
28935;BME280;16044;52.726;-2.108;2023-04-01T02:36:54;99159.78;;;8.73;100.00
28935;BME280;16044;52.726;-2.108;2023-04-01T02:39:22;99164.97;;;8.74;100.00
28935;BME280;16044;52.726;-2.108;2023-04-01T02:41:49;99167.84;;;8.66;100.00
28935;BME280;16044;52.726;-2.108;2023-04-01T02:44:16;99174.25;;;8.65;100.00
28935;BME280;16044;52.726;-2.108;2023-04-01T02:46:43;99170.75;;;8.65;100.00
28935;BME280;16044;52.726;-2.108;2023-04-01T02:49:10;99180.28;;;8.61;100.00
28935;BME280;16044;52.726;-2.108;2023-04-01T02:51:37;99176.06;;;8.58;100.00
28935;BME280;16044;52.726;-2.108;2023-04-01T02:54:04;99175.44;;;8.56;100.00
28935;BME280;16044;52.726;-2.108;2023-04-01T02:56:32;99177.31;;;8.55;100.00
28935;BME280;16044;52.726;-2.108;2023-04-01T02:58:59;99177.66;;;8.46;100.00
28935;BME280;16044;52.726;-2.108;2023-04-01T03:01:25;99184.06;;;8.45;100.00
28935;BME280;16044;52.726;-2.108;2023-04-01T03:03:52;99181.13;;;8.39;100.00
28935;BME280;16044;52.726;-2.108;2023-04-01T03:06:19;99188.84;;;8.43;100.00
28935;BME280;16044;52.726;-2.108;2023-04-01T03:08:46;99187.34;;;8.40;100.00
28935;BME280;16044;52.726;-2.108;2023-04-01T03:11:13;99185.03;;;8.37;100.00
28935;BME280;16044;52.726;-2.108;2023-04-01T03:13:41;99187.28;;;8.33;100.00
28935;BME280;16044;52.726;-2.108;2023-04-01T03:16:08;99185.63;;;8.32;100.00
28935;BME280;16044;52.726;-2.108;2023-04-01T03:18:35;99203.88;;;8.30;100.00
28935;BME280;16044;52.726;-2.108;2023-04-01T03:21:22;99200.53;;;8.28;100.00
28935;BME280;16044;52.726;-2.108;2023-04-01T03:23:50;99197.84;;;8.28;100.00
28935;BME280;16044;52.726;-2.108;2023-04-01T03:26:17;99205.53;;;8.31;100.00
28935;BME280;16044;52.726;-2.108;2023-04-01T03:28:45;99210.28;;;8.29;100.00
28935;BME280;16044;52.726;-2.108;2023-04-01T03:31:12;99211.72;;;8.25;100.00
28935;BME280;16044;52.726;-2.108;2023-04-01T03:33:40;99215.44;;;8.24;100.00
28935;BME280;16044;52.726;-2.108;2023-04-01T03:36:07;99220.84;;;8.24;100.00
28935;BME280;16044;52.726;-2.108;2023-04-01T03:38:35;99217.75;;;8.27;100.00
28935;BME280;16044;52.726;-2.108;2023-04-01T03:41:02;99220.44;;;8.27;100.00
28935;BME280;16044;52.726;-2.108;2023-04-01T03:43:29;99214.03;;;8.28;100.00
28935;BME280;16044;52.726;-2.108;2023-04-01T03:45:56;99205.94;;;8.28;100.00
28935;BME280;16044;52.726;-2.108;2023-04-01T03:48:25;99206.94;;;8.27;100.00
28935;BME280;16044;52.726;-2.108;2023-04-01T03:50:52;99212.16;;;8.29;100.00
28935;BME280;16044;52.726;-2.108;2023-04-01T03:53:19;99212.97;;;8.29;100.00
28935;BME280;16044;52.726;-2.108;2023-04-01T03:55:47;99210.69;;;8.26;100.00
28935;BME280;16044;52.726;-2.108;2023-04-01T03:58:14;99218.34;;;8.23;100.00
28935;BME280;16044;52.726;-2.108;2023-04-01T04:00:41;99213.31;;;8.19;100.00
28935;BME280;16044;52.726;-2.108;2023-04-01T04:03:08;99215.81;;;8.21;100.00
28935;BME280;16044;52.726;-2.108;2023-04-01T04:05:35;99210.81;;;8.18;100.00
28935;BME280;16044;52.726;-2.108;2023-04-01T04:08:02;99226.34;;;8.16;100.00
28935;BME280;16044;52.726;-2.108;2023-04-01T04:10:29;99223.66;;;8.16;100.00
28935;BME280;16044;52.726;-2.108;2023-04-01T04:12:56;99229.81;;;8.10;100.00
28935;BME280;16044;52.726;-2.108;2023-04-01T04:15:23;99232.53;;;8.10;100.00
28935;BME280;16044;52.726;-2.108;2023-04-01T04:17:51;99234.84;;;8.13;100.00
28935;BME280;16044;52.726;-2.108;2023-04-01T04:20:18;99242.28;;;8.11;100.00
28935;BME280;16044;52.726;-2.108;2023-04-01T04:22:44;99244.75;;;8.06;100.00
28935;BME280;16044;52.726;-2.108;2023-04-01T04:25:12;99242.03;;;8.06;100.00
28935;BME280;16044;52.726;-2.108;2023-04-01T04:27:39;99236.00;;;8.04;100.00
28935;BME280;16044;52.726;-2.108;2023-04-01T04:30:07;99252.38;;;8.02;100.00
28935;BME280;16044;52.726;-2.108;2023-04-01T04:32:35;99247.16;;;8.00;100.00
28935;BME280;16044;52.726;-2.108;2023-04-01T04:35:02;99258.31;;;7.97;100.00
28935;BME280;16044;52.726;-2.108;2023-04-01T04:37:29;99262.44;;;7.93;100.00
28935;BME280;16044;52.726;-2.108;2023-04-01T04:39:56;99267.47;;;7.96;100.00
28935;BME280;16044;52.726;-2.108;2023-04-01T04:42:23;99283.66;;;7.96;100.00
28935;BME280;16044;52.726;-2.108;2023-04-01T04:44:50;99279.72;;;7.99;100.00
28935;BME280;16044;52.726;-2.108;2023-04-01T04:47:17;99284.31;;;7.98;100.00
28935;BME280;16044;52.726;-2.108;2023-04-01T04:49:45;99283.00;;;7.94;100.00
28935;BME280;16044;52.726;-2.108;2023-04-01T04:52:11;99287.38;;;7.95;100.00
28935;BME280;16044;52.726;-2.108;2023-04-01T04:54:39;99298.63;;;7.99;100.00
28935;BME280;16044;52.726;-2.108;2023-04-01T04:57:06;99299.84;;;7.96;100.00
28935;BME280;16044;52.726;-2.108;2023-04-01T04:59:33;99296.09;;;7.97;100.00
28935;BME280;16044;52.726;-2.108;2023-04-01T05:02:00;99308.41;;;8.00;100.00
28935;BME280;16044;52.726;-2.108;2023-04-01T05:04:27;99311.47;;;7.97;100.00
28935;BME280;16044;52.726;-2.108;2023-04-01T05:06:55;99314.34;;;7.95;100.00
28935;BME280;16044;52.726;-2.108;2023-04-01T05:09:22;99308.22;;;8.02;100.00
28935;BME280;16044;52.726;-2.108;2023-04-01T05:11:49;99320.84;;;8.01;100.00
28935;BME280;16044;52.726;-2.108;2023-04-01T05:14:16;99309.13;;;7.94;100.00
28935;BME280;16044;52.726;-2.108;2023-04-01T05:16:43;99312.88;;;7.93;100.00
28935;BME280;16044;52.726;-2.108;2023-04-01T05:19:10;99323.03;;;7.91;100.00
28935;BME280;16044;52.726;-2.108;2023-04-01T05:21:37;99333.34;;;7.87;100.00
28935;BME280;16044;52.726;-2.108;2023-04-01T05:24:07;99339.97;;;7.85;100.00
28935;BME280;16044;52.726;-2.108;2023-04-01T05:26:36;99332.69;;;7.85;100.00
28935;BME280;16044;52.726;-2.108;2023-04-01T05:29:06;99338.75;;;7.87;100.00
28935;BME280;16044;52.726;-2.108;2023-04-01T05:31:33;99341.44;;;7.87;100.00
28935;BME280;16044;52.726;-2.108;2023-04-01T05:34:00;99345.53;;;7.83;100.00
28935;BME280;16044;52.726;-2.108;2023-04-01T05:36:27;99353.25;;;7.86;100.00
28935;BME280;16044;52.726;-2.108;2023-04-01T05:38:56;99356.34;;;7.83;100.00
28935;BME280;16044;52.726;-2.108;2023-04-01T05:41:23;99364.44;;;7.83;100.00
28935;BME280;16044;52.726;-2.108;2023-04-01T05:43:51;99364.31;;;7.76;100.00
28935;BME280;16044;52.726;-2.108;2023-04-01T05:46:18;99362.09;;;7.80;100.00
28935;BME280;16044;52.726;-2.108;2023-04-01T05:48:45;99368.53;;;7.79;100.00
28935;BME280;16044;52.726;-2.108;2023-04-01T05:51:15;99379.31;;;7.79;100.00
28935;BME280;16044;52.726;-2.108;2023-04-01T05:53:42;99371.13;;;7.72;100.00
28935;BME280;16044;52.726;-2.108;2023-04-01T05:56:09;99376.69;;;7.71;100.00
28935;BME280;16044;52.726;-2.108;2023-04-01T05:58:37;99383.47;;;7.67;100.00
28935;BME280;16044;52.726;-2.108;2023-04-01T06:01:10;99384.06;;;7.62;100.00
28935;BME280;16044;52.726;-2.108;2023-04-01T06:03:41;99379.84;;;7.59;100.00
28935;BME280;16044;52.726;-2.108;2023-04-01T06:06:29;99390.16;;;7.56;100.00
28935;BME280;16044;52.726;-2.108;2023-04-01T06:09:10;99384.50;;;7.51;100.00
28935;BME280;16044;52.726;-2.108;2023-04-01T06:15:10;99392.13;;;7.47;100.00
28935;BME280;16044;52.726;-2.108;2023-04-01T06:30:08;99407.25;;;7.48;100.00
28935;BME280;16044;52.726;-2.108;2023-04-01T06:33:01;99409.25;;;7.54;100.00
28935;BME280;16044;52.726;-2.108;2023-04-01T06:44:38;99427.44;;;7.52;100.00
28935;BME280;16044;52.726;-2.108;2023-04-01T06:50:44;99447.22;;;7.45;100.00
28935;BME280;16044;52.726;-2.108;2023-04-01T06:56:25;99454.78;;;7.49;100.00
28935;BME280;16044;52.726;-2.108;2023-04-01T06:58:54;99461.38;;;7.47;100.00
28935;BME280;16044;52.726;-2.108;2023-04-01T07:09:37;99479.41;;;7.46;100.00
28935;BME280;16044;52.726;-2.108;2023-04-01T07:12:15;99484.44;;;7.49;100.00
28935;BME280;16044;52.726;-2.108;2023-04-01T07:14:49;99492.84;;;7.54;100.00
28935;BME280;16044;52.726;-2.108;2023-04-01T07:17:21;99496.84;;;7.58;100.00
28935;BME280;16044;52.726;-2.108;2023-04-01T07:19:56;99495.16;;;7.57;100.00
28935;BME280;16044;52.726;-2.108;2023-04-01T07:22:36;99498.16;;;7.63;100.00
28935;BME280;16044;52.726;-2.108;2023-04-01T07:25:15;99495.63;;;7.61;100.00
28935;BME280;16044;52.726;-2.108;2023-04-01T07:27:45;99505.50;;;7.69;100.00
28935;BME280;16044;52.726;-2.108;2023-04-01T07:30:15;99504.13;;;7.73;100.00
28935;BME280;16044;52.726;-2.108;2023-04-01T07:33:05;99514.91;;;7.73;100.00
28935;BME280;16044;52.726;-2.108;2023-04-01T07:35:46;99512.59;;;7.70;100.00
28935;BME280;16044;52.726;-2.108;2023-04-01T07:41:26;99526.94;;;7.85;98.23
28935;BME280;16044;52.726;-2.108;2023-04-01T07:44:12;99531.78;;;7.90;98.34
28935;BME280;16044;52.726;-2.108;2023-04-01T08:01:37;99558.19;;;8.17;95.01
28935;BME280;16044;52.726;-2.108;2023-04-01T08:04:23;99566.28;;;8.17;94.82
28935;BME280;16044;52.726;-2.108;2023-04-01T08:07:11;99575.22;;;8.18;94.96
28935;BME280;16044;52.726;-2.108;2023-04-01T08:13:06;99586.66;;;8.20;94.51
28935;BME280;16044;52.726;-2.108;2023-04-01T08:21:42;99596.31;;;8.14;94.54
28935;BME280;16044;52.726;-2.108;2023-04-01T08:27:24;99603.25;;;8.17;93.30
28935;BME280;16044;52.726;-2.108;2023-04-01T08:32:49;99610.19;;;8.11;93.22
28935;BME280;16044;52.726;-2.108;2023-04-01T08:35:49;99620.63;;;8.14;94.29
28935;BME280;16044;52.726;-2.108;2023-04-01T08:38:27;99618.50;;;8.25;93.75
28935;BME280;16044;52.726;-2.108;2023-04-01T08:40:58;99612.69;;;8.36;93.16
28935;BME280;16044;52.726;-2.108;2023-04-01T08:43:54;99620.38;;;8.39;92.53
28935;BME280;16044;52.726;-2.108;2023-04-01T08:53:03;99638.16;;;8.56;92.05
28935;BME280;16044;52.726;-2.108;2023-04-01T09:07:10;99652.59;;;8.78;90.57
28935;BME280;16044;52.726;-2.108;2023-04-01T09:13:17;99660.69;;;8.78;89.23
28935;BME280;16044;52.726;-2.108;2023-04-01T09:27:43;99671.34;;;9.25;89.52
28935;BME280;16044;52.726;-2.108;2023-04-01T09:39:11;99681.63;;;9.87;85.62
28935;BME280;16044;52.726;-2.108;2023-04-01T09:42:15;99677.50;;;9.91;84.34
28935;BME280;16044;52.726;-2.108;2023-04-01T09:45:08;99685.91;;;9.97;83.77
28935;BME280;16044;52.726;-2.108;2023-04-01T09:48:29;99681.78;;;10.01;83.90
28935;BME280;16044;52.726;-2.108;2023-04-01T10:06:06;99698.69;;;10.46;81.20
28935;BME280;16044;52.726;-2.108;2023-04-01T10:11:50;99710.63;;;10.80;79.23
28935;BME280;16044;52.726;-2.108;2023-04-01T10:21:14;99724.00;;;10.81;77.34
28935;BME280;16044;52.726;-2.108;2023-04-01T10:35:29;99741.19;;;10.95;77.38
28935;BME280;16044;52.726;-2.108;2023-04-01T10:52:29;99757.59;;;11.15;75.05
28935;BME280;16044;52.726;-2.108;2023-04-01T10:55:17;99756.19;;;11.26;74.77
28935;BME280;16044;52.726;-2.108;2023-04-01T11:15:48;99780.06;;;11.72;72.66
28935;BME280;16044;52.726;-2.108;2023-04-01T11:25:45;99789.03;;;12.14;71.46
28935;BME280;16044;52.726;-2.108;2023-04-01T11:42:37;99820.75;;;12.00;68.67
28935;BME280;16044;52.726;-2.108;2023-04-01T11:45:39;99821.78;;;11.99;70.08
28935;BME280;16044;52.726;-2.108;2023-04-01T11:51:43;99824.19;;;11.87;69.93
28935;BME280;16044;52.726;-2.108;2023-04-01T12:01:05;99857.75;;;11.45;68.76
28935;BME280;16044;52.726;-2.108;2023-04-01T12:09:34;99863.78;;;11.40;68.12
28935;BME280;16044;52.726;-2.108;2023-04-01T12:12:32;99864.06;;;11.52;67.32
28935;BME280;16044;52.726;-2.108;2023-04-01T12:18:25;99868.34;;;11.68;67.66
28935;BME280;16044;52.726;-2.108;2023-04-01T12:21:51;99885.13;;;11.78;68.17
28935;BME280;16044;52.726;-2.108;2023-04-01T12:30:40;99901.34;;;11.65;66.71
28935;BME280;16044;52.726;-2.108;2023-04-01T12:36:23;99911.31;;;11.58;66.12
28935;BME280;16044;52.726;-2.108;2023-04-01T12:39:06;99908.34;;;11.52;65.39
28935;BME280;16044;52.726;-2.108;2023-04-01T12:56:23;99932.34;;;11.27;65.31
28935;BME280;16044;52.726;-2.108;2023-04-01T12:59:26;99933.44;;;11.33;64.04
28935;BME280;16044;52.726;-2.108;2023-04-01T13:02:13;99946.81;;;11.35;64.62
28935;BME280;16044;52.726;-2.108;2023-04-01T13:05:16;99947.78;;;11.27;63.66
28935;BME280;16044;52.726;-2.108;2023-04-01T13:07:58;99952.16;;;11.28;63.37
28935;BME280;16044;52.726;-2.108;2023-04-01T13:22:35;99975.69;;;10.99;64.65
28935;BME280;16044;52.726;-2.108;2023-04-01T13:28:49;99976.44;;;10.93;64.65
28935;BME280;16044;52.726;-2.108;2023-04-01T13:32:02;99980.81;;;10.94;65.86
28935;BME280;16044;52.726;-2.108;2023-04-01T13:37:48;100002.94;;;10.76;65.81
28935;BME280;16044;52.726;-2.108;2023-04-01T13:43:38;100003.13;;;10.75;66.66
28935;BME280;16044;52.726;-2.108;2023-04-01T14:02:58;100028.53;;;10.88;66.27
28935;BME280;16044;52.726;-2.108;2023-04-01T14:08:20;100034.06;;;10.80;65.58
28935;BME280;16044;52.726;-2.108;2023-04-01T14:46:22;100089.59;;;10.69;65.21
28935;BME280;16044;52.726;-2.108;2023-04-01T14:49:04;100098.66;;;10.77;65.19
28935;BME280;16044;52.726;-2.108;2023-04-01T14:51:41;100108.09;;;10.81;64.86
28935;BME280;16044;52.726;-2.108;2023-04-01T14:56:43;100111.16;;;10.92;65.19
28935;BME280;16044;52.726;-2.108;2023-04-01T15:02:08;100121.00;;;11.08;64.66
28935;BME280;16044;52.726;-2.108;2023-04-01T15:04:49;100130.78;;;11.09;63.70
28935;BME280;16044;52.726;-2.108;2023-04-01T15:19:12;100161.78;;;11.00;61.70
28935;BME280;16044;52.726;-2.108;2023-04-01T15:22:15;100168.03;;;10.86;62.71
28935;BME280;16044;52.726;-2.108;2023-04-01T15:25:20;100170.84;;;10.78;64.05
28935;BME280;16044;52.726;-2.108;2023-04-01T15:31:04;100177.63;;;10.73;63.57
28935;BME280;16044;52.726;-2.108;2023-04-01T15:34:07;100194.75;;;10.59;63.22
28935;BME280;16044;52.726;-2.108;2023-04-01T15:40:29;100194.09;;;10.57;62.31
28935;BME280;16044;52.726;-2.108;2023-04-01T15:45:39;100205.19;;;10.62;63.69
28935;BME280;16044;52.726;-2.108;2023-04-01T15:54:46;100217.78;;;10.40;62.28
28935;BME280;16044;52.726;-2.108;2023-04-01T15:57:52;100226.75;;;10.41;65.04
28935;BME280;16044;52.726;-2.108;2023-04-01T16:00:58;100234.75;;;10.57;65.30
28935;BME280;16044;52.726;-2.108;2023-04-01T16:03:54;100243.53;;;10.59;64.84
28935;BME280;16044;52.726;-2.108;2023-04-01T16:19:12;100254.75;;;10.33;63.99
28935;BME280;16044;52.726;-2.108;2023-04-01T16:22:03;100266.41;;;10.33;64.76
28935;BME280;16044;52.726;-2.108;2023-04-01T16:37:19;100285.69;;;10.07;67.35
28935;BME280;16044;52.726;-2.108;2023-04-01T16:43:25;100298.75;;;10.04;67.31
28935;BME280;16044;52.726;-2.108;2023-04-01T16:59:57;100324.31;;;10.01;69.88
28935;BME280;16044;52.726;-2.108;2023-04-01T17:02:38;100330.38;;;10.03;70.61
28935;BME280;16044;52.726;-2.108;2023-04-01T17:05:12;100338.03;;;10.00;70.70
28935;BME280;16044;52.726;-2.108;2023-04-01T17:11:20;100340.59;;;9.93;70.99
28935;BME280;16044;52.726;-2.108;2023-04-01T17:14:12;100339.94;;;9.91;70.19
28935;BME280;16044;52.726;-2.108;2023-04-01T17:20:40;100360.44;;;9.85;70.39
28935;BME280;16044;52.726;-2.108;2023-04-01T17:37:37;100391.09;;;9.78;71.88
28935;BME280;16044;52.726;-2.108;2023-04-01T17:45:36;100404.47;;;9.71;72.03
28935;BME280;16044;52.726;-2.108;2023-04-01T17:48:54;100414.13;;;9.65;72.15
28935;BME280;16044;52.726;-2.108;2023-04-01T17:51:55;100418.34;;;9.68;72.62
28935;BME280;16044;52.726;-2.108;2023-04-01T17:57:55;100436.13;;;9.62;73.86
28935;BME280;16044;52.726;-2.108;2023-04-01T18:09:08;100470.78;;;9.50;74.04
28935;BME280;16044;52.726;-2.108;2023-04-01T18:14:34;100474.53;;;9.49;74.33
28935;BME280;16044;52.726;-2.108;2023-04-01T18:25:19;100505.97;;;9.42;76.08
28935;BME280;16044;52.726;-2.108;2023-04-01T18:31:08;100518.47;;;9.27;77.51
28935;BME280;16044;52.726;-2.108;2023-04-01T18:34:02;100521.66;;;9.22;78.15
28935;BME280;16044;52.726;-2.108;2023-04-01T18:36:53;100525.41;;;9.21;78.77
28935;BME280;16044;52.726;-2.108;2023-04-01T18:39:35;100537.88;;;9.14;79.60
28935;BME280;16044;52.726;-2.108;2023-04-01T18:45:50;100554.78;;;9.16;80.46
28935;BME280;16044;52.726;-2.108;2023-04-01T18:48:14;100561.88;;;9.09;81.48
28935;BME280;16044;52.726;-2.108;2023-04-01T18:50:59;100568.81;;;9.11;81.98
28935;BME280;16044;52.726;-2.108;2023-04-01T18:56:26;100590.56;;;9.02;83.33
28935;BME280;16044;52.726;-2.108;2023-04-01T19:02:04;100589.34;;;8.88;86.00
28935;BME280;16044;52.726;-2.108;2023-04-01T19:04:57;100588.00;;;8.84;86.92
28935;BME280;16044;52.726;-2.108;2023-04-01T19:07:50;100592.72;;;8.82;87.62
28935;BME280;16044;52.726;-2.108;2023-04-01T19:16:46;100613.44;;;8.73;88.52
28935;BME280;16044;52.726;-2.108;2023-04-01T19:19:44;100615.47;;;8.71;88.83
28935;BME280;16044;52.726;-2.108;2023-04-01T19:22:41;100611.91;;;8.70;88.67
28935;BME280;16044;52.726;-2.108;2023-04-01T19:25:40;100623.25;;;8.74;88.27
28935;BME280;16044;52.726;-2.108;2023-04-01T19:28:40;100636.91;;;8.64;88.42
28935;BME280;16044;52.726;-2.108;2023-04-01T19:34:25;100643.28;;;8.63;88.18
28935;BME280;16044;52.726;-2.108;2023-04-01T19:37:03;100637.91;;;8.71;87.52
28935;BME280;16044;52.726;-2.108;2023-04-01T19:54:06;100680.81;;;8.66;87.14
28935;BME280;16044;52.726;-2.108;2023-04-01T19:59:38;100696.00;;;8.67;87.47
28935;BME280;16044;52.726;-2.108;2023-04-01T20:04:44;100709.50;;;8.67;87.66
28935;BME280;16044;52.726;-2.108;2023-04-01T20:12:52;100718.16;;;8.71;87.99
28935;BME280;16044;52.726;-2.108;2023-04-01T20:15:43;100722.34;;;8.65;89.16
28935;BME280;16044;52.726;-2.108;2023-04-01T20:21:20;100733.97;;;8.66;89.94
28935;BME280;16044;52.726;-2.108;2023-04-01T20:24:02;100740.09;;;8.68;89.80
28935;BME280;16044;52.726;-2.108;2023-04-01T20:26:38;100737.72;;;8.65;90.33
28935;BME280;16044;52.726;-2.108;2023-04-01T20:29:35;100744.78;;;8.66;90.31
28935;BME280;16044;52.726;-2.108;2023-04-01T20:38:35;100752.69;;;8.59;91.45
28935;BME280;16044;52.726;-2.108;2023-04-01T20:41:27;100761.78;;;8.58;91.74
28935;BME280;16044;52.726;-2.108;2023-04-01T20:50:07;100770.78;;;8.58;92.08
28935;BME280;16044;52.726;-2.108;2023-04-01T20:52:57;100779.03;;;8.57;92.11
28935;BME280;16044;52.726;-2.108;2023-04-01T20:58:23;100789.78;;;8.49;93.18
28935;BME280;16044;52.726;-2.108;2023-04-01T21:03:44;100801.03;;;8.44;93.95
28935;BME280;16044;52.726;-2.108;2023-04-01T21:06:51;100806.00;;;8.39;94.50
28935;BME280;16044;52.726;-2.108;2023-04-01T21:09:44;100807.34;;;8.35;94.61
28935;BME280;16044;52.726;-2.108;2023-04-01T21:15:40;100809.03;;;8.36;94.92
28935;BME280;16044;52.726;-2.108;2023-04-01T21:19:00;100812.03;;;8.33;95.23
28935;BME280;16044;52.726;-2.108;2023-04-01T21:31:05;100827.84;;;8.10;97.08
28935;BME280;16044;52.726;-2.108;2023-04-01T21:34:07;100830.53;;;8.10;97.17
28935;BME280;16044;52.726;-2.108;2023-04-01T21:37:04;100833.94;;;8.12;96.96
28935;BME280;16044;52.726;-2.108;2023-04-01T21:40:01;100843.13;;;8.19;97.05
28935;BME280;16044;52.726;-2.108;2023-04-01T21:49:31;100851.53;;;8.16;96.79
28935;BME280;16044;52.726;-2.108;2023-04-01T22:07:19;100882.41;;;8.13;96.40
28935;BME280;16044;52.726;-2.108;2023-04-01T22:10:01;100886.94;;;8.13;96.55
28935;BME280;16044;52.726;-2.108;2023-04-01T22:12:54;100900.34;;;8.05;96.92
28935;BME280;16044;52.726;-2.108;2023-04-01T22:18:49;100890.69;;;8.02;97.01
28935;BME280;16044;52.726;-2.108;2023-04-01T22:27:06;100911.97;;;8.05;96.83
28935;BME280;16044;52.726;-2.108;2023-04-01T22:33:05;100919.38;;;8.03;97.27
28935;BME280;16044;52.726;-2.108;2023-04-01T22:39:08;100930.19;;;8.03;97.74
28935;BME280;16044;52.726;-2.108;2023-04-01T22:50:39;100951.41;;;7.98;98.04
28935;BME280;16044;52.726;-2.108;2023-04-01T22:56:15;100955.91;;;7.97;98.21
28935;BME280;16044;52.726;-2.108;2023-04-01T22:59:24;100964.00;;;7.97;98.30
28935;BME280;16044;52.726;-2.108;2023-04-01T23:02:06;100971.69;;;8.02;98.19
28935;BME280;16044;52.726;-2.108;2023-04-01T23:04:39;100975.94;;;8.05;97.98
28935;BME280;16044;52.726;-2.108;2023-04-01T23:10:21;100988.31;;;7.97;98.79
28935;BME280;16044;52.726;-2.108;2023-04-01T23:12:55;100990.72;;;8.00;98.49
28935;BME280;16044;52.726;-2.108;2023-04-01T23:15:25;100989.44;;;8.05;98.26
28935;BME280;16044;52.726;-2.108;2023-04-01T23:26:23;101000.53;;;7.92;98.43
28935;BME280;16044;52.726;-2.108;2023-04-01T23:28:57;101005.22;;;7.99;98.34
28935;BME280;16044;52.726;-2.108;2023-04-01T23:31:34;101006.09;;;8.00;98.33
28935;BME280;16044;52.726;-2.108;2023-04-01T23:36:46;101015.47;;;7.96;98.32
28935;BME280;16044;52.726;-2.108;2023-04-01T23:42:23;101027.53;;;8.02;97.96
28935;BME280;16044;52.726;-2.108;2023-04-01T23:45:03;101039.03;;;8.04;97.90
28935;BME280;16044;52.726;-2.108;2023-04-01T23:47:38;101046.72;;;7.98;98.05
28935;BME280;16044;52.726;-2.108;2023-04-01T23:50:21;101049.56;;;7.97;98.45
28935;BME280;16044;52.726;-2.108;2023-04-01T23:53:00;101049.84;;;8.04;98.01
28935;BME280;16044;52.726;-2.108;2023-04-01T23:55:33;101054.22;;;8.05;98.05
